1987 IRWIN (1987216N10270)


On this page: IBTrACS data - Map and Plots - Positions - Intensities - Original source data

Summary

Start Aug 3
End Aug 9
Basin EP
LMI 55 kt
Sources hurdat_epa
jtwc_ep
td9636
atcf
In WMO? Yes
Previous storm 1987 HILARY (EP)
Previous in basin 1987 HILARY (EP)
Concurrent storms 1987 WYNNE (EP)
1987 GREG (EP)
1987 HILARY (EP)
1987 IRWIN (EP)
1987 BETTY (WP)
1987 CARY (WP)
1987 ARLENE (NA)
Next in basin Missing
Next storm 1987 BETTY (WP)

top of page IBTrACS Data: File Access

top of page HURSAT Data: File Access

Image of storm

top of page Plots:

Map of storm track will not appear if FTP is down
Time series of cyclone Maximum Sustained Wind will not appear if FTP is down
Time series of cyclone Minimum Central Pressure will not appear if FTP is down

top of page Track Data:Position

hurdat_epa jtwc_ep td9636 atcf
Date Lat Lon Lat Lon Lat Lon Lat Lon
1987-08-03 18:00:00 10.1 -90.2 10.1 -90.2 10.1 -90.2 10.1 -90.2
1987-08-04 00:00:00 10.4 -90.9 10.4 -90.9 10.4 -90.9 10.4 -90.9
1987-08-04 06:00:00 10.8 -91.7 10.8 -91.7 10.8 -91.6 10.8 -91.7
1987-08-04 12:00:00 11.4 -92.4 11.4 -92.4 11.4 -92.4 11.4 -92.4
1987-08-04 18:00:00 12.0 -93.1 12.0 -93.1 12.0 -93.1 12.0 -93.1
1987-08-05 00:00:00 12.6 -93.8 12.6 -93.8 12.6 -93.8 12.6 -93.8
1987-08-05 06:00:00 12.9 -94.4 12.9 -94.4 13.0 -94.4 12.9 -94.4
1987-08-05 12:00:00 13.2 -95.0 13.2 -95.0 13.2 -95.0 13.2 -95.0
1987-08-05 18:00:00 13.4 -95.7 13.4 -95.7 13.4 -95.7 13.4 -95.7
1987-08-06 00:00:00 13.7 -96.4 13.7 -96.4 13.7 -96.4 13.7 -96.4
1987-08-06 06:00:00 14.1 -97.0 14.1 -97.0 14.2 -97.2 14.1 -97.0
1987-08-06 12:00:00 14.7 -98.1 14.7 -98.1 14.7 -98.1 14.7 -98.1
1987-08-06 18:00:00 15.3 -99.1 15.3 -99.1 15.3 -99.1 15.3 -99.1
1987-08-07 00:00:00 15.8 -100.2 15.8 -100.2 15.8 -100.2 15.8 -100.2
1987-08-07 06:00:00 16.2 -101.3 16.2 -101.3 16.2 -101.2 16.2 -101.3
1987-08-07 12:00:00 16.5 -102.1 16.5 -102.1 16.5 -102.1 16.5 -102.1
1987-08-07 18:00:00 16.9 -103.0 16.9 -103.0 16.8 -103.1 16.9 -103.0
1987-08-08 00:00:00 17.1 -104.0 17.1 -104.0 17.1 -104.0 17.1 -104.0
1987-08-08 06:00:00 17.2 -105.0 17.2 -105.0 17.2 -104.8 17.2 -105.0
1987-08-08 12:00:00 17.2 -105.6 17.2 -105.6 17.2 -105.6 17.2 -105.6
1987-08-08 18:00:00 17.2 -106.4 17.2 -106.4 17.2 -106.3 17.2 -106.4
1987-08-09 00:00:00 17.2 -107.1 17.2 -107.1 17.2 -107.1 17.2 -107.1
1987-08-09 06:00:00 17.2 -107.9 17.2 -107.9 17.2 -107.9 17.2 -107.9

top of pageTrack Data:Intensity

hurdat_epa jtwc_ep td9636 atcf
Date Wind Pres Wind Pres Wind Pres Wind Pres
1987-08-03 18:00:00 30. 30. 30. 30.
1987-08-04 00:00:00 35. 35. 35. 35.
1987-08-04 06:00:00 35. 35. 35. 35.
1987-08-04 12:00:00 35. 35. 35. 35.
1987-08-04 18:00:00 45. 45. 35. 45.
1987-08-05 00:00:00 45. 45. 45. 45.
1987-08-05 06:00:00 50. 50. 45. 50.
1987-08-05 12:00:00 45. 45. 45. 45.
1987-08-05 18:00:00 45. 45. 45. 45.
1987-08-06 00:00:00 50. 50. 50. 50.
1987-08-06 06:00:00 50. 50. 50. 50.
1987-08-06 12:00:00 45. 45. 45. 45.
1987-08-06 18:00:00 55. 55. 45. 55.
1987-08-07 00:00:00 55. 55. 55. 55.
1987-08-07 06:00:00 55. 55. 55. 55.
1987-08-07 12:00:00 55. 55. 55. 55.
1987-08-07 18:00:00 55. 55. 55. 55.
1987-08-08 00:00:00 55. 55. 55. 55.
1987-08-08 06:00:00 55. 55. 55. 55.
1987-08-08 12:00:00 55. 55. 55. 55.
1987-08-08 18:00:00 55. 55. 55. 55.
1987-08-09 00:00:00 45. 45. 45. 45.
1987-08-09 06:00:00 25. 25. 25. 25.

top of page Links to source data

Source Source file Format
hurdat_epa tracks1949to2011_epa.html:503:IRWIN HURDAT
jtwc_ep bep091987.txt ATCF
td9636 cons_worldwide_trop_cyclone_18710101-19891231-002:Line=6204 TD 9636
atcf bep091987.dat ATCF